Kapuskasing Airport
CYYU : now visible

Airfield :











YOU CAN JOIN US ON...

 
LOGIN :

Register | Disclaimer

   EN    FR    IT 

 









Legend :    VFR   Marginal VFR   IFR   Intensive IFR   Very Intensive IFR
Visi :
Ceiling :
>= 8 km
>= 3000ft
5 to 8 km
1000 to 3000 ft
1500m to 5 km
500 to 1000 ft
800 to 1500m
200 to 500 ft
< 800m
< 200 ft
Symbols :   Thunderstorms  Fog  Heavy snow  Heavy precipitations  Wind > 20 kt







- Airport Elevation : 743 ft
- IATA code : YYU


CYYU - Kapuskasing

CURRENT METAR :
  • 212200Z 20013KT 15SM FEW042 SCT250 26/18 A2982 RMK SC2CI2 SLP101 DENSITY ALT 2400FT

EXPIRED METARs :
  • 212100Z 21011G16KT 15SM SCT042 28/18 A2983 RMK SC4 SLP106 DENSITY ALT 2500FT
  • 212000Z 23016KT 15SM SCT042 28/17 A2986 RMK SC4 SLP116 DENSITY ALT 2500FT

TAF TAF CYYU
Valid from the 21 at 20:00 until the 22 at 08:00 UTC


211940Z 2120/2208 21010G20KT P6SM SCT025
TEMPO 2120/2121 BKN025
FM212100 21010G20KT P6SM BKN025 BKN240
FM220200 20010G20KT P6SM BKN025 BKN200
TEMPO 2202/2205 5SM -SHRA BR BKN020
PROB30 2202/2205 VRB20G30KT 2SM TSRA BR BKN007 OVC020CB
FM220500 22012G22KT 5SM -SHRA BR BKN007 OVC012
PROB30 2205/2206 VRB20G35KT 1SM +TSRA BR BKN007 OVC020CB RMK NXT FCST BY 220200Z
No reported NOTAMs for that airfield.



MET'MAP, your aeronautical weather chart ! - Copyright ORBIFLY December 2007 - Disclaimer

ORBIFLY MET'MAP TEAM :

Programming & Development : Alexandra Zaïnal
Concept & Development : Baudouin d'Aumeries
Co-Development & Prog : Marc-Olivier Méhu
Technical & hardware support : Manuel Goepfert

Contact : metmap@orbifly.com




SOURCES & CREDITS :

   NOAA       Earth
Advisory